Time;durP1;ratioP1;P1;durP2;ratioP2;P2;SDS_P1;SDS_P2;PMS_P1;PMS_P2;Temp;Humidity;BMP_temperature;BMP_pressure;BME280_temperature;BME280_humidity;BME280_pressure;Samples;Min_cycle;Max_cycle;Signal;HPM_P1;HPM_P2
2022/06/04 00:00:18;;;;;;;12.00;7.35;;;11.20;99.90;;;;;;5039002;28;20492;-90
2022/06/04 00:02:46;;;;;;;15.50;8.13;;;11.30;99.90;;;;;;5055793;28;20044;-89
2022/06/04 00:05:13;;;;;;;15.90;9.02;;;;;;;;;;5055615;28;20078;-90
2022/06/04 00:07:39;;;;;;;15.10;8.77;;;;;;;;;;5039516;28;20114;-86
2022/06/04 00:15:54;;;;;;;13.77;8.25;;;;;;;;;;4975878;28;20061;-86
2022/06/04 00:18:21;;;;;;;13.77;9.18;;;11.20;99.90;;;;;;4977500;28;20062;-91
2022/06/04 00:20:48;;;;;;;13.20;7.93;;;;;;;;;;4977409;28;20050;-89
2022/06/04 00:23:14;;;;;;;14.75;8.25;;;;;;;;;;4976872;28;20147;-90
2022/06/04 00:25:42;;;;;;;13.73;8.63;;;;;;;;;;4992979;28;20061;-89
2022/06/04 00:28:09;;;;;;;14.20;8.60;;;;;;;;;;4976962;28;20050;-89
2022/06/04 00:30:35;;;;;;;16.08;8.68;;;;;;;;;;4992856;28;20511;-89
2022/06/04 00:33:01;;;;;;;36.75;8.55;;;;;;;;;;4992640;28;20116;-87
2022/06/04 00:35:27;;;;;;;13.93;8.43;;;;;;;;;;4976624;28;20054;-89
2022/06/04 00:37:54;;;;;;;14.15;7.25;;;;;;;;;;4976775;28;20066;-92
2022/06/04 00:40:31;;;;;;;11.95;7.07;;;;;;;;;;4960532;28;20043;-86
2022/06/04 00:42:58;;;;;;;13.23;8.07;;;;;;;;;;4976350;28;20078;-91
2022/06/04 00:45:24;;;;;;;13.05;8.05;;;;;;;;;;4977051;28;20038;-91
2022/06/04 00:47:50;;;;;;;11.20;7.57;;;;;;;;;;4977415;28;20050;-89
2022/06/04 00:50:17;;;;;;;11.23;7.40;;;;;;;;;;5035460;28;20093;-90
2022/06/04 00:52:44;;;;;;;14.38;7.15;;;;;;;;;;5047188;28;20036;-88
2022/06/04 00:55:11;;;;;;;21.88;8.32;;;;;;;;;;5047490;28;20520;-91
2022/06/04 00:57:37;;;;;;;13.10;7.15;;;;;;;;;;5063033;28;20037;-89
2022/06/04 01:00:21;;;;;;;12.15;7.35;;;;;;;;;;5055337;28;20083;-83
2022/06/04 01:03:03;;;;;;;12.13;7.40;;;;;;;;;;5073108;28;20517;-83
2022/06/04 01:05:32;;;;;;;10.10;7.30;;;;;;;;;;5055979;28;20459;-83
2022/06/04 01:08:18;;;;;;;15.00;7.07;;;;;;;;;;5042422;28;20206;-83
2022/06/04 01:11:03;;;;;;;16.23;7.18;;;;;;;;;;5069444;28;20049;-83
2022/06/04 01:13:58;;;;;;;12.18;7.63;;;10.90;99.90;;;;;;5076529;28;20495;-83
2022/06/04 01:16:27;;;;;;;13.48;6.72;;;;;;;;;;5058974;28;20400;-82
2022/06/04 01:18:56;;;;;;;13.63;6.75;;;;;;;;;;5076384;28;20527;-83
2022/06/04 01:21:22;;;;;;;12.20;7.05;;;;;;;;;;5076372;28;20480;-83
2022/06/04 01:24:04;;;;;;;12.07;6.50;;;;;;;;;;5076423;28;20060;-83
2022/06/04 01:26:56;;;;;;;12.20;6.13;;;10.70;99.90;;;;;;5058638;28;20071;-83
2022/06/04 01:29:31;;;;;;;12.18;6.47;;;;;;;;;;5059626;28;20389;-83
2022/06/04 01:32:03;;;;;;;11.70;6.05;;;;;;;;;;5058453;28;20060;-83
2022/06/04 01:34:32;;;;;;;11.75;6.35;;;;;;;;;;5041601;28;20060;-83
2022/06/04 01:37:08;;;;;;;13.35;5.82;;;;;;;;;;5041459;28;20090;-83
2022/06/04 01:42:28;;;;;;;8.70;5.75;;;10.40;99.90;;;;;;5058157;28;20475;-83
2022/06/04 01:44:57;;;;;;;15.13;5.75;;;10.70;99.90;;;;;;5041297;28;20036;-84
2022/06/04 01:47:23;;;;;;;12.13;5.60;;;;;;;;;;5041388;28;20041;-83
2022/06/04 01:49:54;;;;;;;11.77;6.07;;;;;;;;;;5041277;28;20048;-85
2022/06/04 01:52:29;;;;;;;10.85;5.63;;;;;;;;;;5041477;28;20128;-83
2022/06/04 01:55:18;;;;;;;10.05;4.90;;;;;;;;;;5041439;28;20071;-87
2022/06/04 01:58:02;;;;;;;12.95;5.38;;;10.50;99.90;;;;;;5000897;28;20053;-88
2022/06/04 02:00:30;;;;;;;13.03;6.30;;;;;;;;;;5011309;28;20047;-89
2022/06/04 02:03:00;;;;;;;12.50;6.38;;;;;;;;;;5024053;28;20387;-88
2022/06/04 02:05:33;;;;;;;9.95;5.47;;;;;;;;;;5033571;28;20502;-87
2022/06/04 02:08:02;;;;;;;13.85;6.15;;;;;;;;;;5000643;28;20089;-88
2022/06/04 02:10:30;;;;;;;12.45;6.40;;;;;;;;;;5033519;28;20037;-88
2022/06/04 02:12:58;;;;;;;10.57;5.22;;;;;;;;;;5017137;28;20092;-88
2022/06/04 02:15:28;;;;;;;10.45;6.30;;;;;;;;;;5033540;28;20045;-86
2022/06/04 02:17:57;;;;;;;9.43;6.13;;;;;;;;;;5016914;28;20088;-85
2022/06/04 02:20:23;;;;;;;14.20;6.03;;;;;;;;;;5000443;28;20131;-85
2022/06/04 02:22:50;;;;;;;10.15;6.35;;;;;;;;;;5000643;28;20077;-85
2022/06/04 02:25:16;;;;;;;11.43;6.63;;;;;;;;;;5000167;28;20041;-85
2022/06/04 02:27:43;;;;;;;14.38;6.75;;;;;;;;;;5016806;28;20061;-86
2022/06/04 02:30:10;;;;;;;15.02;7.68;;;;;;;;;;5000172;28;20042;-84
2022/06/04 02:32:48;;;;;;;11.50;7.28;;;;;;;;;;5016772;28;20050;-86
2022/06/04 02:35:24;;;;;;;13.65;6.60;;;;;;;;;;5029653;28;20052;-85
2022/06/04 02:37:56;;;;;;;8.60;5.93;;;;;;;;;;5040491;28;20044;-85
2022/06/04 02:40:26;;;;;;;15.73;6.85;;;;;;;;;;5057011;28;20076;-86
2022/06/04 02:42:55;;;;;;;14.25;6.35;;;;;;;;;;5040244;28;20135;-87
2022/06/04 02:45:25;;;;;;;12.48;5.65;;;;;;;;;;5040285;28;20476;-87
2022/06/04 02:47:57;;;;;;;8.38;5.97;;;;;;;;;;5040517;28;20044;-85
2022/06/04 02:50:36;;;;;;;12.15;6.03;;;10.50;99.90;;;;;;5040406;28;20076;-84
2022/06/04 02:53:03;;;;;;;8.98;5.63;;;;;;;;;;5040690;28;20048;-84
2022/06/04 02:55:32;;;;;;;8.40;4.78;;;;;;;;;;5058133;28;20037;-86
2022/06/04 02:58:00;;;;;;;7.30;5.20;;;;;;;;;;5056664;28;20055;-87
2022/06/04 03:00:27;;;;;;;9.02;5.68;;;;;;;;;;5040093;28;20048;-83
2022/06/04 03:02:53;;;;;;;9.27;4.78;;;;;;;;;;5057301;28;20056;-85
2022/06/04 03:05:21;;;;;;;6.60;5.05;;;;;;;;;;5040829;28;20097;-84
2022/06/04 03:07:49;;;;;;;10.90;5.43;;;;;;;;;;5039657;28;20051;-83
2022/06/04 03:10:17;;;;;;;10.13;5.00;;;;;;;;;;5039584;28;20061;-84
2022/06/04 03:12:43;;;;;;;7.97;5.05;;;;;;;;;;5039952;28;20047;-83
2022/06/04 03:15:10;;;;;;;6.07;4.28;;;;;;;;;;5039904;28;20067;-84
2022/06/04 03:17:37;;;;;;;9.40;5.60;;;;;;;;;;5056458;28;20488;-84
2022/06/04 03:20:03;;;;;;;9.05;4.35;;;;;;;;;;5039589;28;20098;-84
2022/06/04 03:22:29;;;;;;;12.23;5.25;;;;;;;;;;5039706;28;20048;-83
2022/06/04 03:24:55;;;;;;;6.93;5.18;;;;;;;;;;5056295;28;20194;-84
2022/06/04 03:27:21;;;;;;;11.02;5.53;;;;;;;;;;5056237;28;20064;-84
2022/06/04 03:29:47;;;;;;;8.75;5.18;;;;;;;;;;5038972;28;20051;-84
2022/06/04 03:32:13;;;;;;;7.65;4.85;;;;;;;;;;5039059;28;20041;-84
2022/06/04 03:34:39;;;;;;;9.68;5.20;;;;;;;;;;5056148;28;20468;-84
2022/06/04 03:37:05;;;;;;;11.82;5.40;;;;;;;;;;5055843;28;20043;-84
2022/06/04 03:39:31;;;;;;;6.05;4.72;;;;;;;;;;5039258;28;20044;-84
2022/06/04 03:41:59;;;;;;;8.20;5.60;;;;;;;;;;5056410;28;20098;-83
2022/06/04 03:44:25;;;;;;;8.57;5.53;;;;;;;;;;5039142;28;20114;-84
2022/06/04 03:46:52;;;;;;;9.50;5.20;;;;;;;;;;5039168;28;20040;-84
2022/06/04 03:49:19;;;;;;;9.75;5.38;;;;;;;;;;5039203;28;20139;-84
2022/06/04 03:51:45;;;;;;;10.60;5.35;;;;;;;;;;5039795;28;20045;-84
2022/06/04 03:54:11;;;;;;;5.20;4.70;;;;;;;;;;5039200;28;20411;-83
2022/06/04 03:56:37;;;;;;;11.57;4.82;;;;;;;;;;5055728;28;20055;-84
2022/06/04 03:59:04;;;;;;;10.05;5.25;;;;;;;;;;5038872;28;20044;-84
2022/06/04 04:01:30;;;;;;;10.02;5.93;;;;;;;;;;5039023;28;20071;-84
2022/06/04 04:03:57;;;;;;;10.18;5.88;;;;;;;;;;5038783;28;20519;-84
2022/06/04 04:06:25;;;;;;;8.13;5.72;;;;;;;;;;5038741;28;20040;-84
2022/06/04 04:08:51;;;;;;;7.15;5.63;;;;;;;;;;5055399;28;20044;-84
2022/06/04 04:11:25;;;;;;;8.20;5.07;;;10.10;99.90;;;;;;5038672;28;20040;-84
2022/06/04 04:13:52;;;;;;;8.07;5.25;;;;;;;;;;5039105;28;20059;-84
2022/06/04 04:16:19;;;;;;;5.20;4.18;;;;;;;;;;5056486;28;20041;-84
2022/06/04 04:18:45;;;;;;;7.18;4.82;;;;;;;;;;5038599;28;20037;-84
2022/06/04 04:21:16;;;;;;;9.48;4.70;;;;;;;;;;5038638;28;20135;-84
2022/06/04 04:23:43;;;;;;;9.20;4.90;;;;;;;;;;5055044;28;20051;-84
2022/06/04 04:26:09;;;;;;;10.52;5.25;;;;;;;;;;5055154;28;20044;-84
2022/06/04 04:28:36;;;;;;;11.90;5.28;;;;;;;;;;5055123;28;20488;-84
2022/06/04 04:31:02;;;;;;;8.70;4.70;;;;;;;;;;5038371;28;20132;-84
2022/06/04 04:33:29;;;;;;;5.93;4.10;;;;;;;;;;5038409;28;20084;-84
2022/06/04 04:35:55;;;;;;;5.05;4.43;;;;;;;;;;5039856;28;20424;-90
2022/06/04 04:38:21;;;;;;;7.18;4.60;;;;;;;;;;5041149;28;20396;-92
2022/06/04 04:40:48;;;;;;;7.05;5.13;;;;;;;;;;5042783;28;20037;-92
2022/06/04 04:43:14;;;;;;;8.23;4.90;;;;;;;;;;5061733;28;20052;-92
2022/06/04 04:45:42;;;;;;;6.45;4.32;;;;;;;;;;5044873;28;20045;-91
2022/06/04 04:48:09;;;;;;;8.20;5.05;;;;;;;;;;5061783;28;20056;-91
2022/06/04 04:50:37;;;;;;;8.45;5.07;;;;;;;;;;5044726;28;20051;-91
2022/06/04 04:53:04;;;;;;;10.93;5.38;;;;;;;;;;5045348;28;20106;-92
2022/06/04 04:55:32;;;;;;;9.63;5.18;;;;;;;;;;5079978;28;20036;-92
2022/06/04 04:57:58;;;;;;;8.25;5.78;;;;;;;;;;5060896;28;20042;-90
2022/06/04 05:00:24;;;;;;;6.95;5.40;;;;;;;;;;5078521;28;20119;-91
2022/06/04 05:02:50;;;;;;;11.60;5.28;;;;;;;;;;5062074;28;20087;-92
2022/06/04 05:05:16;;;;;;;9.00;5.35;;;;;;;;;;5062198;28;20044;-91
2022/06/04 05:07:44;;;;;;;6.70;5.32;;;;;;;;;;5061081;28;20040;-92
2022/06/04 05:10:11;;;;;;;7.22;5.50;;;;;;;;;;5060209;28;20040;-91
2022/06/04 05:12:37;;;;;;;7.35;5.13;;;;;;;;;;5060723;28;20036;-91
2022/06/04 05:15:04;;;;;;;11.50;5.55;;;;;;;;;;5059900;28;20052;-91
2022/06/04 05:17:30;;;;;;;5.90;4.53;;;;;;;;;;5058745;28;20480;-84
2022/06/04 05:19:56;;;;;;;9.90;4.57;;;;;;;;;;5058454;28;20047;-84
2022/06/04 05:22:22;;;;;;;11.45;5.15;;;;;;;;;;5058316;28;20498;-84
2022/06/04 05:24:48;;;;;;;11.30;5.90;;;;;;;;;;5076259;28;20403;-84
2022/06/04 05:27:15;;;;;;;9.80;5.43;;;;;;;;;;5076233;28;20476;-83
2022/06/04 05:29:41;;;;;;;11.52;5.20;;;;;;;;;;5041893;28;20076;-84
2022/06/04 05:32:09;;;;;;;7.70;5.35;;;;;;;;;;5041352;28;20049;-85
2022/06/04 05:34:36;;;;;;;7.32;5.20;;;;;;;;;;5040913;28;20045;-84
2022/06/04 05:37:02;;;;;;;5.72;4.68;;;;;;;;;;5040816;28;20087;-85
2022/06/04 05:39:32;;;;;;;7.60;5.40;;;;;;;;;;5056989;28;20495;-86
2022/06/04 05:41:59;;;;;;;6.25;4.30;;;;;;;;;;5040536;28;20076;-85
2022/06/04 05:44:25;;;;;;;6.88;4.63;;;;;;;;;;5056828;28;20114;-85
2022/06/04 05:46:51;;;;;;;6.47;4.30;;;;;;;;;;5040439;28;20049;-84
2022/06/04 05:49:17;;;;;;;7.82;5.30;;;;;;;;;;5040738;28;20095;-84
2022/06/04 05:51:44;;;;;;;5.55;4.55;;;;;;;;;;5039776;28;20132;-84
2022/06/04 05:54:10;;;;;;;7.28;5.40;;;;;;;;;;5040123;28;20048;-83
2022/06/04 05:56:37;;;;;;;6.78;5.15;;;;;;;;;;5040047;28;20067;-85
2022/06/04 05:59:05;;;;;;;7.35;4.72;;;;;;;;;;5040565;28;20059;-93
2022/06/04 06:01:32;;;;;;;6.13;4.85;;;;;;;;;;5056841;28;20055;-87
2022/06/04 06:03:58;;;;;;;4.40;4.00;;;;;;;;;;5040349;28;20408;-94
2022/06/04 06:06:25;;;;;;;8.13;4.72;;;;;;;;;;5040180;28;20520;-91
2022/06/04 06:08:52;;;;;;;8.10;4.25;;;;;;;;;;5041147;28;20040;-86
2022/06/04 06:11:19;;;;;;;10.18;3.95;;;;;;;;;;5059348;28;20048;-87
2022/06/04 06:13:46;;;;;;;5.85;3.95;;;;;;;;;;5043207;28;20049;-89
2022/06/04 06:16:14;;;;;;;7.45;3.85;;;;;;;;;;5042244;28;20132;-90
2022/06/04 06:18:40;;;;;;;8.02;4.88;;;;;;;;;;5041579;28;20048;-89
2022/06/04 06:21:07;;;;;;;5.55;4.88;;;;;;;;;;5076495;28;20094;-87
2022/06/04 06:23:34;;;;;;;10.80;4.75;;;;;;;;;;5074689;28;20396;-89
2022/06/04 06:26:04;;;;;;;6.55;4.15;;;;;;;;;;5057400;28;20040;-89
2022/06/04 06:28:30;;;;;;;6.32;4.50;;;;;;;;;;5057755;28;20385;-90
2022/06/04 06:30:56;;;;;;;10.32;4.28;;;;;;;;;;5057773;28;20052;-86
2022/06/04 06:33:22;;;;;;;10.40;4.60;;;;;;;;;;4997761;28;1125029;-86
2022/06/04 06:35:58;;;;;;;5.60;4.97;;;;;;;;;;5055792;28;20048;-89
2022/06/04 06:38:25;;;;;;;5.95;4.00;;;;;;;;;;5037378;28;20045;-86
2022/06/04 06:40:51;;;;;;;4.70;4.18;;;;;;;;;;5038669;28;20056;-88
2022/06/04 06:43:18;;;;;;;6.40;4.80;;;;;;;;;;5055564;28;20119;-91
2022/06/04 06:45:44;;;;;;;6.55;4.80;;;;;;;;;;5039266;28;20047;-92
2022/06/04 06:48:10;;;;;;;5.53;4.63;;;;;;;;;;5057811;28;20084;-91
2022/06/04 06:50:36;;;;;;;7.53;4.57;;;;;;;;;;5054665;28;20519;-86
2022/06/04 06:53:03;;;;;;;9.07;4.53;;;;;;;;;;5037159;28;20040;-84
2022/06/04 06:55:29;;;;;;;11.00;5.30;;;;;;;;;;5053468;28;20053;-85
2022/06/04 06:57:55;;;;;;;10.77;4.78;;;;;;;;;;5053602;28;20401;-85
2022/06/04 07:00:21;;;;;;;6.43;4.78;;;;;;;;;;5036574;28;20040;-85
2022/06/04 07:02:47;;;;;;;6.85;4.32;;;;;;;;;;5052767;28;20504;-85
2022/06/04 07:05:13;;;;;;;7.53;4.50;;;;;;;;;;5036205;28;20048;-85
2022/06/04 07:07:39;;;;;;;7.32;4.32;;;;;;;;;;5053041;28;20060;-85
2022/06/04 07:10:06;;;;;;;9.00;4.22;;;;;;;;;;5053250;28;20041;-85
2022/06/04 07:12:32;;;;;;;7.03;4.35;;;;;;;;;;5036706;28;20049;-85
2022/06/04 07:14:58;;;;;;;6.13;4.32;;;14.10;99.90;;;;;;5036908;28;20063;-85
2022/06/04 07:17:25;;;;;;;6.68;4.13;;;;;;;;;;5036359;28;20056;-85
2022/06/04 07:19:51;;;;;;;6.43;4.53;;;;;;;;;;5036238;28;20481;-85
2022/06/04 07:22:17;;;;;;;4.78;3.65;;;;;;;;;;5036448;28;20048;-85
2022/06/04 07:24:43;;;;;;;14.45;4.25;;;;;;;;;;5036219;28;20130;-85
2022/06/04 07:27:10;;;;;;;6.50;4.10;;;;;;;;;;5036388;28;20052;-85
2022/06/04 07:29:36;;;;;;;6.57;3.88;;;;;;;;;;5036087;28;20048;-85
2022/06/04 07:32:03;;;;;;;5.18;3.72;;;14.60;99.90;;;;;;5052502;28;20140;-85
2022/06/04 07:34:30;;;;;;;6.15;3.95;;;;;;;;;;5052460;28;20057;-85
2022/06/04 07:36:56;;;;;;;7.00;3.92;;;;;;;;;;5036251;28;20044;-85
2022/06/04 07:39:22;;;;;;;7.57;3.85;;;;;;;;;;5058756;28;20127;-91
2022/06/04 07:41:53;;;;;;;10.63;3.80;;;14.60;99.90;;;;;;5059014;28;20136;-86
2022/06/04 07:44:20;;;;;;;4.55;3.85;;;;;;;;;;5039641;28;20409;-86
2022/06/04 07:46:47;;;;;;;7.22;3.60;;;;;;;;;;5039349;28;20108;-90
2022/06/04 07:49:13;;;;;;;6.53;3.63;;;;;;;;;;5040327;28;20047;-86
2022/06/04 07:51:41;;;;;;;7.05;3.47;;;;;;;;;;5059436;28;20579;-92
2022/06/04 07:54:11;;;;;;;7.18;4.13;;;;;;;;;;5040289;28;20084;-85
2022/06/04 07:56:38;;;;;;;8.20;4.88;;;;;;;;;;5039962;28;20045;-94
2022/06/04 07:59:05;;;;;;;5.80;3.90;;;15.30;99.90;;;;;;5058304;28;20074;-85
2022/06/04 08:01:32;;;;;;;7.63;4.13;;;;;;;;;;5041155;28;20041;-87
2022/06/04 08:03:58;;;;;;;8.90;4.32;;;;;;;;;;5040697;28;20136;-86
2022/06/04 08:06:24;;;;;;;6.07;3.13;;;;;;;;;;5057257;28;20595;-84
2022/06/04 08:08:54;;;;;;;6.07;4.07;;;15.30;99.90;;;;;;5056907;28;20116;-88
2022/06/04 08:11:34;;;;;;;5.32;3.88;;;;;;;;;;5057106;28;20049;-93
2022/06/04 08:14:19;;;;;;;7.80;4.13;;;;;;;;;;5042895;28;20041;-90
2022/06/04 08:17:02;;;;;;;;;;;15.30;99.90;;;;;;5042729;28;20048;-95
2022/06/04 08:19:30;;;;;;;7.88;3.97;;;;;;;;;;5041724;28;19920;-89
2022/06/04 08:21:57;;;;;;;3.92;3.33;;;;;;;;;;5037939;28;20041;-84
2022/06/04 08:24:24;;;;;;;4.70;3.55;;;;;;;;;;5037649;28;20045;-84
2022/06/04 08:26:58;;;;;;;4.90;3.15;;;15.50;99.90;;;;;;5038136;28;20183;-85
2022/06/04 08:29:24;;;;;;;6.63;3.88;;;;;;;;;;5038026;28;20393;-84
2022/06/04 08:31:53;;;;;;;5.97;3.70;;;;;;;;;;5053753;28;20488;-84
2022/06/04 08:34:20;;;;;;;8.15;4.75;;;;;;;;;;5037301;28;20067;-84
2022/06/04 08:36:46;;;;;;;8.48;5.15;;;;;;;;;;5037888;28;20084;-84
2022/06/04 08:39:12;;;;;;;5.13;3.92;;;;;;;;;;5037375;28;20045;-85
2022/06/04 08:41:44;;;;;;;6.53;3.90;;;15.90;99.90;;;;;;5053935;28;20124;-85
2022/06/04 08:44:10;;;;;;;8.80;3.90;;;;;;;;;;5053570;28;20045;-85
2022/06/04 08:46:42;;;;;;;5.55;4.13;;;;;;;;;;5037611;28;20045;-85
2022/06/04 08:49:21;;;;;;;8.38;3.88;;;16.10;99.90;;;;;;5037647;28;20080;-85
2022/06/04 08:51:47;;;;;;;5.00;4.32;;;;;;;;;;5052835;28;20049;-85
2022/06/04 08:59:50;;;;;;;7.10;3.97;;;16.20;99.90;;;;;;5052939;28;20056;-85
2022/06/04 09:02:20;;;;;;;5.45;4.75;;;;;;;;;;5052377;28;20047;-85
2022/06/04 09:04:52;;;;;;;6.10;3.38;;;16.50;99.90;;;;;;5053775;28;20396;-84
2022/06/04 09:07:29;;;;;;;6.65;4.40;;;16.30;99.90;;;;;;5053467;28;20076;-85
2022/06/04 09:09:55;;;;;;;3.90;2.65;;;;;;;;;;5052359;28;20049;-86
2022/06/04 09:12:27;;;;;;;3.70;3.08;;;;;;;;;;5052387;28;20037;-85
2022/06/04 09:14:59;;;;;;;10.52;3.72;;;;;;;;;;5053645;28;20400;-85
2022/06/04 09:17:37;;;;;;;6.88;3.70;;;16.50;99.90;;;;;;5052448;28;20076;-85
2022/06/04 09:20:17;;;;;;;5.18;3.22;;;16.60;99.90;;;;;;5053205;28;20092;-85
2022/06/04 09:22:47;;;;;;;8.50;3.97;;;16.90;99.90;;;;;;5052205;28;20041;-85
2022/06/04 09:25:14;;;;;;;5.50;3.50;;;16.70;99.90;;;;;;5052405;28;20091;-85
2022/06/04 09:28:07;;;;;;;7.05;3.65;;;16.70;99.90;;;;;;5054801;28;20048;-85
2022/06/04 09:30:33;;;;;;;6.78;3.60;;;;;;;;;;5057228;28;20468;-85
2022/06/04 09:32:59;;;;;;;10.13;3.55;;;;;;;;;;5056543;28;20486;-84
2022/06/04 09:35:35;;;;;;;6.03;4.30;;;16.90;99.90;;;;;;5056396;28;20098;-85
2022/06/04 09:38:02;;;;;;;8.30;2.90;;;;;;;;;;5057463;28;20106;-85
2022/06/04 09:40:33;;;;;;;4.55;3.38;;;16.80;99.90;;;;;;5040094;28;20078;-85
2022/06/04 09:43:11;;;;;;;4.90;3.63;;;16.60;99.90;;;;;;5056440;28;20045;-84
2022/06/04 09:45:37;;;;;;;6.97;3.70;;;;;;;;;;5039626;28;20048;-85
2022/06/04 09:48:14;;;;;;;5.57;2.88;;;16.80;99.90;;;;;;5039721;28;20041;-85
2022/06/04 09:50:41;;;;;;;5.35;3.30;;;;;;;;;;5039141;28;20049;-85
2022/06/04 09:53:10;;;;;;;4.50;3.70;;;16.80;99.90;;;;;;5039343;28;20397;-86
2022/06/04 09:55:38;;;;;;;5.13;3.20;;;16.70;99.90;;;;;;5055952;28;20424;-85
2022/06/04 09:58:20;;;;;;;4.93;3.88;;;16.80;99.90;;;;;;5055242;28;20053;-86
2022/06/04 10:01:05;;;;;;;4.63;3.20;;;16.70;99.90;;;;;;5055361;28;20041;-85
2022/06/04 10:03:34;;;;;;;6.50;3.40;;;16.90;99.90;;;;;;5056631;28;20048;-85
2022/06/04 10:06:11;;;;;;;4.32;3.63;;;17.10;99.90;;;;;;5055005;28;20519;-86
2022/06/04 10:11:32;;;;;;;4.65;3.67;;;17.10;99.90;;;;;;5054525;28;20117;-85
2022/06/04 10:13:59;;;;;;;4.55;3.05;;;;;;;;;;5056064;28;20049;-85
2022/06/04 10:16:27;;;;;;;5.47;3.70;;;17.10;99.90;;;;;;5039528;28;20041;-85
2022/06/04 10:19:00;;;;;;;5.78;3.28;;;17.20;99.90;;;;;;5055082;28;20052;-86
2022/06/04 10:21:35;;;;;;;6.73;3.37;;;17.10;99.90;;;;;;5039382;28;20392;-85
2022/06/04 10:24:06;;;;;;;3.97;3.15;;;17.20;99.90;;;;;;5054310;28;20403;-85
2022/06/04 10:27:08;;;;;;;5.38;3.35;;;17.40;99.90;;;;;;5055006;28;20041;-85
2022/06/04 10:29:52;;;;;;;4.00;3.33;;;17.40;99.90;;;;;;5055934;28;20041;-85
2022/06/04 10:32:44;;;;;;;7.93;3.25;;;17.20;99.90;;;;;;5054205;28;20130;-85
2022/06/04 10:35:24;;;;;;;4.85;3.20;;;17.60;99.90;;;;;;5037579;28;20052;-85
2022/06/04 10:38:01;;;;;;;4.32;3.28;;;17.50;99.90;;;;;;5037083;28;20496;-84
2022/06/04 10:40:37;;;;;;;3.97;3.30;;;17.70;99.90;;;;;;5037126;28;20053;-85
2022/06/04 10:43:29;;;;;;;8.98;2.97;;;17.70;99.90;;;;;;5037548;28;20041;-85
2022/06/04 10:46:20;;;;;;;4.00;3.45;;;17.80;99.90;;;;;;5034954;28;20045;-84
2022/06/04 10:49:11;;;;;;;3.67;2.88;;;17.80;99.90;;;;;;5037207;28;20489;-85
2022/06/04 10:51:56;;;;;;;7.05;3.05;;;17.70;99.90;;;;;;5037064;28;20397;-85
2022/06/04 10:54:25;;;;;;;3.55;2.85;;;17.80;99.90;;;;;;5036825;28;20102;-84
2022/06/04 10:57:15;;;;;;;8.05;3.15;;;17.80;99.90;;;;;;5053329;28;20049;-84
2022/06/04 11:00:10;;;;;;;4.38;2.97;;;17.90;99.90;;;;;;5036955;28;20124;-85
2022/06/04 11:02:39;;;;;;;6.13;3.58;;;17.80;99.90;;;;;;5049494;28;20060;-84
2022/06/04 11:05:33;;;;;;;3.55;2.90;;;17.90;99.90;;;;;;5052896;28;20123;-85
2022/06/04 11:07:59;;;;;;;6.57;3.40;;;;;;;;;;5036515;28;20626;-85
2022/06/04 11:10:35;;;;;;;4.03;3.45;;;18.10;99.90;;;;;;5053075;28;20084;-85
2022/06/04 11:13:10;;;;;;;8.38;3.65;;;18.00;99.90;;;;;;5036738;28;20123;-85
2022/06/04 11:15:42;;;;;;;4.38;3.40;;;18.30;99.90;;;;;;5036406;28;20041;-85
2022/06/04 11:18:24;;;;;;;3.95;3.55;;;18.20;99.90;;;;;;5036611;28;20045;-85
2022/06/04 11:20:58;;;;;;;3.38;2.92;;;18.40;99.90;;;;;;5052935;28;20041;-85
2022/06/04 11:23:53;;;;;;;4.60;3.65;;;18.50;99.90;;;;;;5036139;28;20107;-85
2022/06/04 11:26:34;;;;;;;7.30;3.90;;;18.50;99.90;;;;;;4976375;28;20379;-85
2022/06/04 11:29:03;;;;;;;7.03;3.97;;;18.60;99.90;;;;;;4960578;28;20046;-85
2022/06/04 11:31:29;;;;;;;11.63;4.43;;;;;;;;;;4992830;28;20115;-84
2022/06/04 11:34:00;;;;;;;7.88;3.95;;;;;;;;;;4973028;28;20486;-85
2022/06/04 11:36:45;;;;;;;5.72;4.10;;;18.50;99.90;;;;;;4995664;28;20155;-84
2022/06/04 11:39:13;;;;;;;5.53;3.00;;;18.50;99.90;;;;;;4979860;28;20089;-85
2022/06/04 11:41:39;;;;;;;10.38;4.45;;;;;;;;;;4995581;28;20095;-84
2022/06/04 11:44:18;;;;;;;6.53;3.88;;;18.60;99.90;;;;;;4996841;28;20054;-91
2022/06/04 11:46:59;;;;;;;4.78;3.97;;;18.70;99.90;;;;;;4996520;28;20104;-90
2022/06/04 11:49:59;;;;;;;8.00;4.10;;;18.60;99.90;;;;;;4996422;28;20057;-93
2022/06/04 11:52:32;;;;;;;4.95;3.42;;;18.60;99.90;;;;;;4974036;28;20058;-91
2022/06/04 11:54:58;;;;;;;7.93;3.47;;;;;;;;;;4958266;28;20054;-90
2022/06/04 11:57:45;;;;;;;12.15;4.07;;;18.60;99.90;;;;;;4957974;28;20058;-90
2022/06/04 12:00:31;;;;;;;4.07;3.30;;;18.60;99.90;;;;;;4958714;28;20546;-88
2022/06/04 12:03:18;;;;;;;5.22;3.35;;;18.40;99.90;;;;;;4975125;28;20057;-89
2022/06/04 12:05:55;;;;;;;6.35;4.53;;;18.40;99.90;;;;;;4981232;28;20038;-94
2022/06/04 12:08:25;;;;;;;6.30;4.18;;;18.50;99.90;;;;;;4998280;28;20089;-96
2022/06/04 12:11:12;;;;;;;6.25;4.22;;;18.40;99.90;;;;;;4998448;28;20053;-90
2022/06/04 12:13:56;;;;;;;8.23;4.18;;;18.40;99.90;;;;;;5013775;28;20054;-95
2022/06/04 12:16:33;;;;;;;10.00;4.82;;;18.60;99.90;;;;;;4997114;28;20054;-91
2022/06/04 12:25:16;;;;;;;7.15;4.68;;;18.80;99.90;;;;;;4996415;28;20061;-89
2022/06/04 12:27:57;;;;;;;9.63;4.10;;;18.60;99.90;;;;;;4997742;28;20052;-93
2022/06/04 12:30:44;;;;;;;6.78;4.50;;;18.60;99.90;;;;;;5039919;28;20135;-94
2022/06/04 12:33:25;;;;;;;9.85;4.82;;;18.40;99.90;;;;;;5058694;28;20087;-93
2022/06/04 12:36:04;;;;;;;7.65;4.70;;;18.40;99.90;;;;;;5058560;28;20065;-92
2022/06/04 12:38:36;;;;;;;7.72;4.22;;;18.50;99.90;;;;;;5041048;28;20044;-94
2022/06/04 12:41:18;;;;;;;6.65;4.18;;;18.60;99.90;;;;;;5041279;28;20369;-94
2022/06/04 12:43:57;;;;;;;7.20;4.25;;;18.50;99.90;;;;;;5056786;28;20503;-89
2022/06/04 12:46:23;;;;;;;7.82;3.60;;;;;;;;;;5039468;28;20037;-88
2022/06/04 12:48:49;;;;;;;8.10;3.75;;;;;;;;;;5039477;28;20127;-89
2022/06/04 12:51:39;;;;;;;9.57;4.85;;;18.50;99.90;;;;;;5039440;28;20040;-89
2022/06/04 12:54:17;;;;;;;5.15;3.65;;;18.70;99.90;;;;;;5039341;28;20046;-92
2022/06/04 12:56:43;;;;;;;7.45;3.83;;;;;;;;;;5056022;28;20047;-90
2022/06/04 12:59:37;;;;;;;6.43;3.40;;;18.70;99.90;;;;;;5039400;28;20550;-90
2022/06/04 13:02:42;;;;;;;4.45;3.72;;;19.10;99.90;;;;;;5061905;28;20055;-86
2022/06/04 13:05:14;;;;;;;5.53;3.42;;;18.90;99.90;;;;;;5068795;28;20511;-86
2022/06/04 13:08:06;;;;;;;8.38;4.07;;;19.10;99.90;;;;;;5088140;28;20052;-89
2022/06/04 13:10:51;;;;;;;9.65;4.40;;;19.00;99.90;;;;;;5047519;28;20135;-88
2022/06/04 13:13:44;;;;;;;6.63;3.67;;;19.00;99.90;;;;;;5084760;28;20396;-91
2022/06/04 13:16:28;;;;;;;7.25;3.60;;;18.80;99.90;;;;;;5069218;28;20079;-89
2022/06/04 13:19:09;;;;;;;8.73;3.33;;;19.00;99.90;;;;;;5072138;28;20063;-94
2022/06/04 13:21:37;;;;;;;10.20;4.53;;;19.00;99.90;;;;;;5053013;28;20047;-88
2022/06/04 13:24:19;;;;;;;9.60;4.32;;;19.20;99.90;;;;;;5069031;28;20563;-87
2022/06/04 13:27:23;;;;;;;4.18;3.42;;;18.80;99.90;;;;;;5071497;28;20040;-87
2022/06/04 13:29:56;;;;;;;6.32;4.63;;;19.10;99.90;;;;;;5011461;28;20052;-89
2022/06/04 13:32:22;;;;;;;9.52;3.92;;;18.90;99.90;;;;;;5028649;28;20109;-88
2022/06/04 13:34:49;;;;;;;4.90;4.40;;;;;;;;;;5010730;28;20417;-93
2022/06/04 13:37:24;;;;;;;8.25;4.97;;;19.10;99.90;;;;;;5026416;28;20053;-86
2022/06/04 13:39:52;;;;;;;7.75;4.38;;;18.90;99.90;;;;;;5025375;28;20088;-92
2022/06/04 13:42:38;;;;;;;7.43;4.88;;;19.00;99.90;;;;;;5017697;28;20045;-84
2022/06/04 13:45:09;;;;;;;8.15;4.55;;;19.00;99.90;;;;;;5017604;28;20058;-88
2022/06/04 13:47:37;;;;;;;5.53;4.18;;;;;;;;;;5001265;28;20041;-85
2022/06/04 13:50:24;;;;;;;11.02;4.80;;;18.90;99.90;;;;;;5001381;28;20060;-85
2022/06/04 13:52:50;;;;;;;10.00;4.95;;;;;;;;;;5017512;28;20488;-85
2022/06/04 13:55:28;;;;;;;7.55;3.95;;;18.90;99.90;;;;;;5001132;28;20415;-86
2022/06/04 13:57:57;;;;;;;7.50;4.47;;;18.90;99.90;;;;;;5017590;28;20088;-84
2022/06/04 14:00:26;;;;;;;5.65;3.55;;;18.80;99.90;;;;;;5016934;28;20140;-85
2022/06/04 14:02:57;;;;;;;8.00;4.53;;;18.60;99.90;;;;;;5022653;28;20450;-85
2022/06/04 14:05:47;;;;;;;7.05;4.15;;;18.30;99.90;;;;;;5041232;28;20102;-88
2022/06/04 14:08:13;;;;;;;7.88;4.22;;;;;;;;;;5057644;28;20041;-84
2022/06/04 14:11:00;;;;;;;9.40;3.80;;;18.40;99.90;;;;;;5041626;28;20495;-84
2022/06/04 14:13:32;;;;;;;8.43;5.60;;;18.70;99.90;;;;;;5073970;28;20037;-84
2022/06/04 14:15:58;;;;;;;5.10;3.50;;;;;;;;;;5057671;28;20510;-85
2022/06/04 14:18:39;;;;;;;7.95;4.40;;;19.00;99.90;;;;;;5040830;28;20090;-85
2022/06/04 14:21:14;;;;;;;7.20;4.05;;;;;;;;;;5040714;28;20047;-85
2022/06/04 14:23:42;;;;;;;4.38;3.35;;;19.40;99.90;;;;;;5057094;28;20131;-85
2022/06/04 14:26:17;;;;;;;7.20;4.05;;;19.30;99.90;;;;;;5040635;28;20098;-85
2022/06/04 14:29:02;;;;;;;4.45;3.33;;;19.10;99.90;;;;;;5073897;28;20110;-85
2022/06/04 14:31:56;;;;;;;4.88;3.50;;;19.40;99.90;;;;;;5040723;28;20052;-86
2022/06/04 14:34:22;;;;;;;10.75;3.63;;;;;;;;;;5040353;28;20080;-85
2022/06/04 14:36:51;;;;;;;9.10;3.97;;;19.70;99.90;;;;;;5040580;28;20148;-85
2022/06/04 14:39:19;;;;;;;9.02;3.67;;;19.60;99.90;;;;;;5057892;28;20040;-84
2022/06/04 14:42:24;;;;;;;10.38;4.78;;;19.60;99.90;;;;;;5056968;28;20087;-84